createdAt,value
2022-09-17T00:03:28.631Z,99948.59
2022-09-17T00:08:20.392Z,99939.38
2022-09-17T00:13:12.226Z,99931.44
2022-09-17T00:18:04.206Z,99941.84
2022-09-17T00:22:55.901Z,99939.06
2022-09-17T00:27:47.770Z,99939.25
2022-09-17T00:32:39.794Z,99929.78
2022-09-17T00:37:31.734Z,99944.09
2022-09-17T00:42:23.599Z,99949.06
2022-09-17T00:47:30.150Z,99954.06
2022-09-17T00:52:40.092Z,99942.16
2022-09-17T00:57:32.220Z,99928.63
2022-09-17T01:02:25.101Z,99946.69
2022-09-17T01:07:52.400Z,99942.75
2022-09-17T01:13:11.133Z,99943.59
2022-09-17T01:18:05.054Z,99941.06
2022-09-17T01:23:34.107Z,99943.59
2022-09-17T01:28:40.645Z,99944.44
2022-09-17T01:33:47.229Z,99947.19
2022-09-17T01:38:54.851Z,99942.00
2022-09-17T01:43:59.014Z,99937.88
2022-09-17T01:48:54.646Z,99945.00
2022-09-17T01:53:54.166Z,99946.94
2022-09-17T01:58:56.838Z,99952.59
2022-09-17T02:04:14.899Z,99942.03
2022-09-17T02:09:22.513Z,99940.19
2022-09-17T02:14:19.067Z,99932.94
2022-09-17T02:19:22.942Z,99926.75
2022-09-17T02:24:21.161Z,99936.75
2022-09-17T02:29:19.097Z,99937.38
2022-09-17T02:34:11.514Z,99941.53
2022-09-17T02:39:04.638Z,99952.75
2022-09-17T02:44:03.943Z,99945.25
2022-09-17T02:49:15.216Z,99938.56
2022-09-17T02:54:28.086Z,99936.25
2022-09-17T02:59:25.447Z,99944.97
2022-09-17T03:04:20.252Z,99944.72
2022-09-17T03:09:12.062Z,99952.84
2022-09-17T03:14:04.518Z,99952.59
2022-09-17T03:18:56.131Z,99964.00
2022-09-17T03:23:48.154Z,99959.66
2022-09-17T03:28:39.895Z,99952.91
2022-09-17T03:33:32.371Z,99940.00
2022-09-17T03:38:24.195Z,99953.75
2022-09-17T03:43:16.460Z,99946.31
2022-09-17T03:48:08.153Z,99947.16
2022-09-17T03:52:59.818Z,99942.75
2022-09-17T03:57:51.526Z,99948.34
2022-09-17T04:02:43.791Z,99952.03
2022-09-17T04:07:35.497Z,99947.59
2022-09-17T04:12:27.074Z,99955.06
2022-09-17T04:17:19.871Z,99954.97
2022-09-17T04:22:11.530Z,99951.78
2022-09-17T04:27:03.285Z,99953.41
2022-09-17T04:31:54.833Z,99951.69
2022-09-17T04:36:46.490Z,99957.84
2022-09-17T04:41:38.145Z,99970.72
2022-09-17T04:46:30.140Z,99963.19
2022-09-17T04:51:21.797Z,99953.38
2022-09-17T04:56:13.466Z,99954.97
2022-09-17T05:01:05.391Z,99950.53
2022-09-17T05:05:57.174Z,99965.41
2022-09-17T05:10:51.267Z,99961.84
2022-09-17T05:15:42.932Z,99948.25
2022-09-17T05:20:34.642Z,99955.06
2022-09-17T05:25:26.429Z,99946.88
2022-09-17T05:30:18.381Z,99949.34
2022-09-17T05:35:10.960Z,99958.00
2022-09-17T05:40:07.483Z,99955.88
2022-09-17T05:44:59.152Z,99950.59
2022-09-17T05:49:50.865Z,99958.19
2022-09-17T05:54:43.329Z,99956.06
2022-09-17T05:59:36.073Z,99950.22
2022-09-17T06:04:29.639Z,99947.72
2022-09-17T06:09:25.076Z,99965.09
2022-09-17T06:14:16.776Z,99958.44
2022-09-17T06:19:08.355Z,99964.84
2022-09-17T06:24:00.948Z,99965.84
2022-09-17T06:28:52.637Z,99964.84
2022-09-17T06:33:44.391Z,99967.16
2022-09-17T06:38:36.468Z,99982.28
2022-09-17T06:43:28.674Z,99991.00
2022-09-17T06:48:21.023Z,99975.81
2022-09-17T06:53:12.700Z,99979.59
2022-09-17T06:58:04.299Z,99991.84
2022-09-17T07:03:00.821Z,99990.31
2022-09-17T07:07:53.041Z,99994.81
2022-09-17T07:12:49.698Z,99996.38
2022-09-17T07:17:44.590Z,100003.34
2022-09-17T07:22:36.515Z,100002.72
2022-09-17T07:27:32.345Z,100000.44
2022-09-17T07:32:24.555Z,100007.03
2022-09-17T07:37:16.861Z,99999.16
2022-09-17T07:42:09.546Z,100002.19
2022-09-17T07:47:01.227Z,100004.41
2022-09-17T07:51:54.844Z,99992.97
2022-09-17T07:56:46.681Z,99992.00
2022-09-17T08:01:38.439Z,99998.44
2022-09-17T08:06:30.923Z,99997.72
2022-09-17T08:11:51.916Z,100003.59
2022-09-17T08:16:37.355Z,99990.78
2022-09-17T08:21:29.002Z,99992.25
2022-09-17T08:26:23.005Z,100008.34
2022-09-17T08:31:16.871Z,99998.09
2022-09-17T08:36:11.720Z,99998.50
2022-09-17T08:41:22.207Z,100021.13
2022-09-17T08:46:13.965Z,99990.00
2022-09-17T08:51:28.688Z,100007.34
2022-09-17T08:56:21.559Z,100000.44
2022-09-17T09:01:28.576Z,100003.44
2022-09-17T09:06:27.273Z,100011.03
2022-09-17T09:11:27.541Z,100009.03
2022-09-17T09:16:23.846Z,100015.72
2022-09-17T09:21:26.932Z,100014.63
2022-09-17T09:26:23.726Z,100009.47
2022-09-17T09:32:03.183Z,100013.63
2022-09-17T09:37:20.165Z,100016.63
2022-09-17T09:42:16.140Z,100005.09
2022-09-17T09:47:28.008Z,99993.81
2022-09-17T09:52:41.465Z,99991.13
2022-09-17T09:57:46.133Z,100008.47
2022-09-17T10:02:37.879Z,100001.91
2022-09-17T10:07:29.631Z,99996.69
2022-09-17T10:12:21.776Z,100006.16
2022-09-17T10:17:27.237Z,100008.63
2022-09-17T10:22:20.313Z,100005.50
2022-09-17T10:27:18.786Z,100013.78
2022-09-17T10:32:16.863Z,100007.78
2022-09-17T10:37:54.562Z,100001.88
2022-09-17T10:42:50.848Z,100003.81
2022-09-17T10:47:44.220Z,99999.66
2022-09-17T10:52:40.961Z,99991.66
2022-09-17T10:58:10.245Z,100004.75
2022-09-17T11:03:13.975Z,99993.44
2022-09-17T11:08:14.906Z,100002.34
2022-09-17T11:13:29.353Z,99994.34
2022-09-17T11:18:41.056Z,99982.47
2022-09-17T11:24:10.643Z,99987.50
2022-09-17T11:29:24.563Z,99979.53
2022-09-17T11:34:27.186Z,99976.28
2022-09-17T11:39:30.397Z,99967.44
2022-09-17T11:44:37.001Z,99961.75
2022-09-17T11:49:37.825Z,99956.53
2022-09-17T11:54:37.650Z,99953.53
2022-09-17T11:59:32.391Z,99953.06
2022-09-17T12:04:27.119Z,99959.28
2022-09-17T12:09:26.289Z,99961.75
2022-09-17T12:14:29.146Z,99967.09
2022-09-17T12:19:43.249Z,99968.22
2022-09-17T12:24:35.039Z,99972.75
2022-09-17T12:29:51.704Z,99956.56
2022-09-17T12:35:19.232Z,99967.09
2022-09-17T12:40:17.187Z,99966.56
2022-09-17T12:45:32.954Z,99955.03
2022-09-17T12:50:27.540Z,99962.72
2022-09-17T12:55:46.771Z,99967.84
2022-09-17T13:00:52.303Z,99954.88
2022-09-17T13:06:30.808Z,99946.03
2022-09-17T13:11:41.423Z,99940.75
2022-09-17T13:16:45.294Z,99929.94
2022-09-17T13:22:01.376Z,99933.72
2022-09-17T13:26:55.054Z,99938.66
2022-09-17T13:31:48.834Z,99937.88
2022-09-17T13:36:47.779Z,99945.81
2022-09-17T13:41:42.175Z,99947.75
2022-09-17T13:46:36.395Z,99938.56
2022-09-17T13:51:31.202Z,99939.91
2022-09-17T13:56:34.964Z,99935.50
2022-09-17T14:02:27.460Z,99933.78
2022-09-17T14:07:23.596Z,99931.63
2022-09-17T14:12:44.700Z,99922.84
2022-09-17T14:17:53.443Z,99922.75
2022-09-17T14:22:45.120Z,99927.09
2022-09-17T14:28:00.503Z,99924.25
2022-09-17T14:32:52.046Z,99929.88
2022-09-17T14:37:47.605Z,99930.63
2022-09-17T14:42:39.383Z,99923.75
2022-09-17T14:47:31.313Z,99928.63
2022-09-17T14:52:27.953Z,99922.75
2022-09-17T14:57:29.719Z,99927.59
2022-09-17T15:02:46.334Z,99925.00
2022-09-17T15:07:41.820Z,99924.13
2022-09-17T15:12:38.332Z,99920.47
2022-09-17T15:17:31.100Z,99928.09
2022-09-17T15:22:28.590Z,99921.66
2022-09-17T15:27:34.266Z,99924.22
2022-09-17T15:32:26.712Z,99910.47
2022-09-17T15:37:21.094Z,99908.66
2022-09-17T15:42:20.344Z,99901.72
2022-09-17T15:47:51.063Z,99909.75
2022-09-17T15:52:43.143Z,99906.38
2022-09-17T15:57:35.149Z,99903.16
2022-09-17T16:02:32.558Z,99902.06
2022-09-17T16:07:30.053Z,99907.88
2022-09-17T16:12:24.541Z,99903.50
2022-09-17T16:17:26.419Z,99906.88
2022-09-17T16:22:18.324Z,99905.97
2022-09-17T16:27:32.191Z,99909.91
2022-09-17T16:32:23.813Z,99911.91
2022-09-17T16:37:15.481Z,99911.00
2022-09-17T16:42:07.191Z,99902.03
2022-09-17T16:46:58.984Z,99912.72
2022-09-17T16:51:51.267Z,99901.13
2022-09-17T16:56:42.901Z,99904.13
2022-09-17T17:01:34.779Z,99904.50
2022-09-17T17:06:27.023Z,99915.09
2022-09-17T17:11:18.718Z,99908.97
2022-09-17T17:16:12.022Z,99908.47
2022-09-17T17:21:08.394Z,99911.06
2022-09-17T17:26:00.570Z,99900.13
2022-09-17T17:30:52.854Z,99899.47
2022-09-17T17:35:46.296Z,99897.84
2022-09-17T17:40:38.088Z,99896.00
2022-09-17T17:45:29.738Z,99897.47
2022-09-17T17:50:21.525Z,99900.13
2022-09-17T17:55:13.606Z,99895.63
2022-09-17T18:00:05.894Z,99892.56
2022-09-17T18:05:02.068Z,99890.09
2022-09-17T18:09:55.724Z,99888.19
2022-09-17T18:14:47.704Z,99896.16
2022-09-17T18:19:39.371Z,99896.16
2022-09-17T18:24:30.991Z,99892.00
2022-09-17T18:29:22.672Z,99894.97
2022-09-17T18:34:16.441Z,99883.34
2022-09-17T18:39:46.703Z,99885.69
2022-09-17T18:44:23.271Z,99892.94
2022-09-17T18:49:15.593Z,99889.03
2022-09-17T18:54:07.545Z,99888.53
2022-09-17T18:59:03.302Z,99892.81
2022-09-17T19:03:59.047Z,99897.63
2022-09-17T19:08:51.123Z,99897.75
2022-09-17T19:13:45.255Z,99906.63
2022-09-17T19:18:39.678Z,99900.81
2022-09-17T19:23:31.821Z,99905.41
2022-09-17T19:28:23.635Z,99901.63
2022-09-17T19:33:15.375Z,99905.81
2022-09-17T19:38:11.181Z,99909.13
2022-09-17T19:43:04.874Z,99906.16
2022-09-17T19:48:01.618Z,99894.97
2022-09-17T19:52:53.359Z,99897.59
2022-09-17T19:57:44.982Z,99903.97
2022-09-17T20:02:36.679Z,99905.69
2022-09-17T20:07:29.279Z,99916.56
2022-09-17T20:12:20.891Z,99917.47
2022-09-17T20:17:13.189Z,99926.06
2022-09-17T20:22:04.886Z,99928.78
2022-09-17T20:26:56.487Z,99926.75
2022-09-17T20:31:48.235Z,99926.13
2022-09-17T20:36:40.042Z,99923.41
2022-09-17T20:41:31.945Z,99917.97
2022-09-17T20:46:28.950Z,99925.91
2022-09-17T20:51:24.122Z,99922.94
2022-09-17T20:56:21.026Z,99919.16
2022-09-17T21:01:17.890Z,99904.81
2022-09-17T21:06:16.404Z,99906.47
2022-09-17T21:11:08.119Z,99904.44
2022-09-17T21:16:00.910Z,99898.63
2022-09-17T21:20:53.183Z,99905.59
2022-09-17T21:25:45.768Z,99891.84
2022-09-17T21:30:37.467Z,99898.78
2022-09-17T21:35:32.761Z,99895.31
2022-09-17T21:40:24.529Z,99891.41
2022-09-17T21:45:16.194Z,99891.25
2022-09-17T21:50:08.620Z,99895.97
2022-09-17T21:55:00.358Z,99896.41
2022-09-17T21:59:51.998Z,99889.75
2022-09-17T22:04:43.661Z,99891.88
2022-09-17T22:09:35.322Z,99895.66
2022-09-17T22:14:27.013Z,99896.69
2022-09-17T22:19:20.533Z,99895.06
2022-09-17T22:24:12.786Z,99896.94
2022-09-17T22:29:07.368Z,99893.84
2022-09-17T22:33:59.422Z,99890.13
2022-09-17T22:38:57.252Z,99882.81
2022-09-17T22:43:53.380Z,99882.81
2022-09-17T22:48:45.602Z,99873.19
2022-09-17T22:53:38.377Z,99875.69
2022-09-17T22:58:31.155Z,99876.97
2022-09-17T23:03:26.261Z,99868.22
2022-09-17T23:08:18.097Z,99859.47
2022-09-17T23:13:11.313Z,99854.25
2022-09-17T23:18:04.726Z,99842.75
2022-09-17T23:22:56.675Z,99843.81
2022-09-17T23:27:48.420Z,99832.75
2022-09-17T23:32:40.082Z,99844.72
2022-09-17T23:37:31.858Z,99832.84
2022-09-17T23:42:23.598Z,99821.16
2022-09-17T23:47:15.260Z,99822.19
2022-09-17T23:52:06.989Z,99816.16
2022-09-17T23:56:58.676Z,99815.31
